Flight Track Log - Related Links

Times and Time Zones

All times are in EDT time to prevent confusion due to time zone crossing. See the AAY874 flight status page for this flight to view local times or setup timezone preferences in your user account.

Time Position Orientation Groundspeed Altitude Reporting Facility
EDT Latitude Longitude Course Direction KTS MPH feet Rate Location/Type
Mon 02:35:57 PM 27.9000 -82.6833 North 15 17 100  Level Tampa TRACON
Mon 02:36:51 PM 27.8833 -82.6833 180° South 91 105 100  Level Tampa TRACON
Mon 02:39:39 PM 27.9000 -82.6833 360° North 11 13 100 350 Level Tampa TRACON
Mon 02:40:51 PM 27.9500 -82.7000 344° North 171 197 1,500 1,227 Climbing Tampa TRACON
Mon 02:41:51 PM 28.0000 -82.6667 30° Northeast 222 255 2,800 1,632 Climbing Tampa TRACON
Mon 02:42:00 PM 28.7332 -82.6333 North  Level FlightAware Approximate
Mon 02:42:45 PM 28.0500 -82.6500 16° North 276 318 4,600  Level Tampa TRACON
Mon 02:43:39 PM 28.1167 -82.6500 360° North 254 292 7,600 2,446 Climbing Tampa TRACON
Mon 02:45:22 PM 28.2372 -82.6358 North 269 310 11,000 1,767 Climbing Jacksonville Center
Mon 02:46:22 PM 28.3208 -82.6283 North 281 323 12,400 1,450 Climbing Jacksonville Center
Mon 02:47:22 PM 28.4167 -82.6211 North 313 360 13,900 1,650 Climbing Jacksonville Center
Mon 02:48:22 PM 28.5189 -82.6114 North 343 395 15,700 1,700 Climbing Jacksonville Center
Mon 02:49:22 PM 28.6233 -82.5992 North 363 418 17,300 1,500 Climbing Jacksonville Center
Mon 02:50:22 PM 28.7297 -82.5894 North 376 433 18,700 1,500 Climbing Jacksonville Center
Mon 02:51:22 PM 28.8425 -82.5797 North 388 447 20,300 1,450 Climbing Jacksonville Center
Mon 02:52:22 PM 28.9550 -82.5817 359° North 393 452 21,600 1,300 Climbing Jacksonville Center
Mon 02:53:22 PM 29.0678 -82.6075 349° North 398 458 22,900 1,150 Climbing Jacksonville Center
Mon 02:54:22 PM 29.1828 -82.6358 348° North 411 473 23,900 1,100 Climbing Jacksonville Center
Mon 02:55:22 PM 29.3058 -82.6617 350° North 430 495 25,100 975 Climbing Jacksonville Center
Mon 03:00:56 PM 30.0252 -82.7842 354° North 468 539 30,300 982 Climbing FlightAware ADS-B
Mon 03:02:42 PM 30.2539 -82.8108 354° North 457 526 32,300 1,032 Climbing FlightAware ADS-B
Mon 03:04:02 PM 30.4067 -82.7805 36° Northeast 448 516 33,500 863 Climbing FlightAware ADS-B
Mon 03:05:22 PM 30.5419 -82.6611 36° Northeast 433 498 34,600 643 Climbing Jacksonville Center
Mon 03:06:22 PM 30.6275 -82.5858 37° Northeast 427 491 35,000 200 Climbing Jacksonville Center
Mon 03:07:22 PM 30.7356 -82.4889 38° Northeast 437 503 35,000  Level Jacksonville Center
Mon 03:08:22 PM 30.8356 -82.4014 37° Northeast 437 503 35,000  Level Jacksonville Center
Mon 03:09:22 PM 30.9356 -82.3114 38° Northeast 447 514 35,000  Level Jacksonville Center
Mon 03:10:22 PM 31.0372 -82.2186 38° Northeast 447 514 35,000  Level Jacksonville Center
Mon 03:11:22 PM 31.1350 -82.1306 38° Northeast 447 514 35,000  Level Jacksonville Center
Mon 03:12:22 PM 31.2344 -82.0372 39° Northeast 447 514 35,000  Level Jacksonville Center
Mon 03:13:22 PM 31.3342 -81.9514 36° Northeast 442 509 35,000  Level Jacksonville Center
Mon 03:14:22 PM 31.4192 -81.8700 39° Northeast 442 509 35,000  Level Jacksonville Center
Mon 03:15:22 PM 31.5289 -81.7714 37° Northeast 442 509 35,000  Level Jacksonville Center
Mon 03:16:22 PM 31.6264 -81.6825 38° Northeast 442 509 35,000  Level Jacksonville Center
Mon 03:17:22 PM 31.7153 -81.6006 38° Northeast 442 509 35,000  Level Jacksonville Center
Mon 03:18:22 PM 31.8206 -81.4964 40° Northeast 442 509 35,000  Level Jacksonville Center
Mon 03:19:22 PM 31.9136 -81.4142 37° Northeast 454 522 35,000  Level Jacksonville Center
Mon 03:20:22 PM 32.0211 -81.3169 37° Northeast 460 529 35,000  Level Jacksonville Center
Mon 03:21:22 PM 32.1181 -81.2222 40° Northeast 454 522 35,000  Level Jacksonville Center
Mon 03:22:22 PM 32.2042 -81.1125 47° Northeast 440 506 35,000  Level Jacksonville Center
Mon 03:23:22 PM 32.2817 -80.9981 51° Northeast 452 520 35,000  Level Jacksonville Center
Mon 03:24:22 PM 32.3511 -80.8883 53° Northeast 452 520 35,000  Level Jacksonville Center
Mon 03:25:22 PM 32.4325 -80.7586 53° Northeast 449 517 35,000  Level Jacksonville Center
Mon 03:26:22 PM 32.5078 -80.6411 53° Northeast 442 509 35,000 -50 Level Jacksonville Center
Mon 03:27:22 PM 32.5828 -80.5258 52° Northeast 442 509 34,900  Descending Jacksonville Center
Mon 03:28:22 PM 32.6597 -80.4053 53° Northeast 448 516 35,000 50 Climbing Jacksonville Center
Mon 03:29:22 PM 32.7328 -80.2897 53° Northeast 443 510 35,000  Level Jacksonville Center
Mon 03:30:22 PM 32.8075 -80.1714 53° Northeast 443 510 35,000  Level Jacksonville Center
Mon 03:31:22 PM 32.8864 -80.0578 50° Northeast 443 510 35,000  Level Jacksonville Center
Mon 03:32:22 PM 32.9844 -79.9656 38° Northeast 443 510 35,000 -50 Level Jacksonville Center
Mon 03:33:22 PM 33.0911 -79.8925 30° Northeast 443 510 34,900  Descending Jacksonville Center
Mon 03:38:57 PM 33.6756 -79.4651 32° Northeast 441 507 35,000 16 Climbing FlightAware ADS-B (EFHN)
Mon 03:39:28 PM 33.7307 -79.4242 32° Northeast 442 509 35,000  Level FlightAware ADS-B (EFHN)
Mon 03:40:22 PM 33.8142 -79.3606 32° Northeast 427 491 35,000  Level Jacksonville Center
Mon 03:41:22 PM 33.9206 -79.2864 30° Northeast 427 491 35,000  Level Jacksonville Center
Mon 03:42:22 PM 34.0247 -79.2094 31° Northeast 427 491 35,000  Level Jacksonville Center
Mon 03:43:22 PM 34.1286 -79.1297 32° Northeast 433 498 35,000  Level Jacksonville Center
Mon 03:45:48 PM 34.3725 -78.9439 32° Northeast 435 501 35,000  Level Washington Center
Mon 03:46:52 PM 34.4750 -78.8675 32° Northeast 435 501 35,000  Level Washington Center
Mon 03:53:04 PM 35.1020 -78.3871 32° Northeast 437 503 35,000  Level FlightAware ADS-B (YGEH)
Mon 03:53:46 PM 35.1718 -78.3331 32° Northeast 439 505 35,000  Level FlightAware ADS-B (YGEH)
Mon 03:54:26 PM 35.2365 -78.2831 32° Northeast 440 506 35,000  Level FlightAware ADS-B (YGEH)
Mon 03:55:07 PM 35.2988 -78.2348 32° Northeast 441 507 35,000  Level FlightAware ADS-B (YGEH)
Mon 03:55:48 PM 35.3704 -78.1791 32° Northeast 441 507 35,000  Level FlightAware ADS-B (YGEH)
Mon 03:56:28 PM 35.4410 -78.1242 32° Northeast 441 507 35,000  Level FlightAware ADS-B (YGEH)
Mon 03:57:06 PM 35.5065 -78.0733 32° Northeast 441 507 35,000  Level FlightAware ADS-B (YGEH)
Mon 03:57:46 PM 35.5730 -78.0213 32° Northeast 438 504 35,000  Level FlightAware ADS-B (YGEH)
Mon 03:58:25 PM 35.6277 -77.9785 32° Northeast 438 504 35,000  Level FlightAware ADS-B (YGEH)
Mon 04:01:28 PM 35.9938 -77.6879 37° Northeast 440 506 35,000  Level FlightAware ADS-B (KWWD)
Mon 04:02:13 PM 36.0677 -77.6191 37° Northeast 440 506 35,000  Level FlightAware ADS-B (KWWD)
Mon 04:04:44 PM 36.3132 -77.3903 37° Northeast 440 506 35,000  Level FlightAware ADS-B (KWWD)
Mon 04:05:24 PM 36.3783 -77.3292 37° Northeast 442 509 35,000  Level FlightAware ADS-B (KWWD)
Mon 04:05:57 PM 36.4317 -77.2789 37° Northeast 443 510 35,000  Level FlightAware ADS-B (KWWD)
Mon 04:06:36 PM 36.4917 -77.2226 37° Northeast 443 510 35,000  Level FlightAware ADS-B
Mon 04:07:06 PM 36.5438 -77.1735 37° Northeast 444 511 35,000  Level FlightAware ADS-B
Mon 04:07:37 PM 36.5939 -77.1261 37° Northeast 444 511 35,000  Level FlightAware ADS-B
Mon 04:08:09 PM 36.6480 -77.0750 37° Northeast 444 511 35,000  Level FlightAware ADS-B (KWWD)
Mon 04:08:47 PM 36.7107 -77.0156 37° Northeast 445 512 35,000  Level FlightAware ADS-B (KWWD)
Mon 04:09:36 PM 36.7874 -76.9458 35° Northeast 444 511 35,000  Level FlightAware ADS-B
Mon 04:09:39 PM 36.7949 -76.9393 36° Northeast 438 504 35,000  Level FlightAware ADS-B (KWWD)
Mon 04:10:16 PM 36.8530 -76.8876 36° Northeast 444 511 35,000  Level FlightAware ADS-B
Mon 04:10:35 PM 36.8898 -76.8546 36° Northeast 437 503 35,000  Level FlightAware ADS-B (KWWD)
Mon 04:11:06 PM 36.9410 -76.8085 36° Northeast 443 510 35,000  Level FlightAware ADS-B
Mon 04:11:21 PM 36.9670 -76.7849 35° Northeast 441 507 35,000  Level FlightAware ADS-B
Mon 04:11:35 PM 36.9892 -76.7648 36° Northeast 441 507 35,000  Level FlightAware ADS-B (KWWD)
Mon 04:12:06 PM 37.0401 -76.7187 36° Northeast 441 507 35,000  Level FlightAware ADS-B
Mon 04:12:36 PM 37.0633 -76.6977 36° Northeast 440 506 35,000  Level FlightAware ADS-B
Mon 04:13:07 PM 37.1411 -76.6272 36° Northeast 439 505 35,000  Level FlightAware ADS-B (KWWD)
Mon 04:13:45 PM 37.2041 -76.5700 36° Northeast 438 504 35,000  Level FlightAware ADS-B
Mon 04:14:17 PM 37.2559 -76.5229 36° Northeast 439 505 35,000  Level FlightAware ADS-B
Mon 04:14:51 PM 37.3125 -76.4712 36° Northeast 439 505 35,000  Level FlightAware ADS-B (KWWD)
Mon 04:15:25 PM 37.3681 -76.4202 36° Northeast 439 505 35,000  Level FlightAware ADS-B (KWWD)
Mon 04:16:04 PM 37.4328 -76.3609 36° Northeast 439 505 35,000  Level FlightAware ADS-B
Mon 04:16:45 PM 37.4997 -76.2996 36° Northeast 440 506 35,000  Level FlightAware ADS-B
Mon 04:17:21 PM 37.5602 -76.2438 36° Northeast 441 507 35,000  Level FlightAware ADS-B
Mon 04:17:55 PM 37.6154 -76.1929 36° Northeast 441 507 35,000  Level FlightAware ADS-B (KWWD)
Mon 04:18:28 PM 37.6698 -76.1426 36° Northeast 441 507 35,000  Level FlightAware ADS-B (KWWD)
Mon 04:19:02 PM 37.7258 -76.0907 36° Northeast 441 507 35,000  Level FlightAware ADS-B
Mon 04:19:32 PM 37.7746 -76.0454 36° Northeast 441 507 35,000  Level FlightAware ADS-B (EGAA / BFS)
Mon 04:20:07 PM 37.8327 -75.9914 36° Northeast 440 506 35,000  Level FlightAware ADS-B (KWWD)
Mon 04:20:42 PM 37.8846 -75.9431 36° Northeast 439 505 35,000 237 Level FlightAware ADS-B (EGAA / BFS)
Mon 04:21:23 PM 37.9526 -75.8798 36° Northeast 441 507 35,300 720 Climbing FlightAware ADS-B (EGAA / BFS)
Mon 04:21:32 PM 37.9681 -75.8654 36° Northeast 441 507 35,600 923 Climbing FlightAware ADS-B
Mon 04:22:02 PM 38.0164 -75.8201 37° Northeast 442 509 35,900 720 Climbing FlightAware ADS-B (EGAA / BFS)
Mon 04:22:22 PM 38.0540 -75.7848 36° Northeast 442 509 36,200 720 Climbing FlightAware ADS-B
Mon 04:22:52 PM 38.0905 -75.7506 37° Northeast 442 509 36,500 700 Climbing FlightAware ADS-B (EGAA / BFS)
Mon 04:23:22 PM 38.1522 -75.6926 37° Northeast 441 507 36,900 492 Climbing FlightAware ADS-B (EGAA / BFS)
Mon 04:23:53 PM 38.2015 -75.6461 37° Northeast 444 511 37,000 88 Climbing FlightAware ADS-B (EGAA / BFS)
Mon 04:24:30 PM 38.2602 -75.5907 37° Northeast 443 510 37,000  Level FlightAware ADS-B (EGAA / BFS)
Mon 04:25:01 PM 38.3075 -75.5483 32° Northeast 438 504 37,000  Level FlightAware ADS-B (EGAA / BFS)
Mon 04:25:12 PM 38.3364 -75.5266 28° Northeast 437 503 37,000  Level FlightAware ADS-B (KWWD)
Mon 04:25:42 PM 38.3887 -75.4947 23° Northeast 436 502 37,000  Level FlightAware ADS-B (EGAA / BFS)
Mon 04:26:12 PM 38.4414 -75.4707 18° North 436 502 37,000  Level FlightAware ADS-B (EGAA / BFS)
Mon 04:26:42 PM 38.5011 -75.4461 18° North 437 503 37,000  Level FlightAware ADS-B (EGAA / BFS)
Mon 04:27:12 PM 38.5526 -75.4246 18° North 438 504 37,000  Level FlightAware ADS-B (EGAA / BFS)
Mon 04:27:42 PM 38.6200 -75.3964 18° North 437 503 37,000  Level FlightAware ADS-B (EGAA / BFS)
Mon 04:28:14 PM 38.6821 -75.3705 18° North 437 503 37,000  Level FlightAware ADS-B (KWWD)
Mon 04:28:44 PM 38.7038 -75.3615 18° North 434 499 37,000  Level FlightAware ADS-B (EGAA / BFS)
Mon 04:29:27 PM 38.8200 -75.3055 29° Northeast 437 503 37,000  Level FlightAware ADS-B (KWWD)
Mon 04:29:36 PM 38.8319 -75.2958 31° Northeast 439 505 37,000  Level FlightAware ADS-B (EGAA / BFS)
Mon 04:30:11 PM 38.8887 -75.2485 33° Northeast 439 505 37,000  Level FlightAware ADS-B (EGAA / BFS)
Mon 04:30:42 PM 38.9436 -75.2034 33° Northeast 439 505 37,000  Level FlightAware ADS-B (EGAA / BFS)
Mon 04:31:13 PM 38.9969 -75.1595 33° Northeast 440 506 37,000  Level FlightAware ADS-B (EGAA / BFS)
Mon 04:31:56 PM 39.0741 -75.0957 33° Northeast 439 505 37,000  Level FlightAware ADS-B (KPHL)
Mon 04:32:43 PM 39.1549 -75.0286 33° Northeast 439 505 37,000  Level FlightAware ADS-B (KWWD)
Mon 04:33:18 PM 39.2148 -74.9788 33° Northeast 439 505 37,000  Level FlightAware ADS-B (KWWD)
Mon 04:33:57 PM 39.2738 -74.9297 33° Northeast 439 505 37,000  Level FlightAware ADS-B (KWWD)
Mon 04:34:47 PM 39.3669 -74.8521 33° Northeast 439 505 37,000  Level FlightAware ADS-B (KWWD)
Mon 04:35:17 PM 39.4148 -74.8121 33° Northeast 439 505 37,000  Level FlightAware ADS-B (KWWD)
Mon 04:35:57 PM 39.4858 -74.7526 33° Northeast 438 504 37,000  Level FlightAware ADS-B (KWWD)
Mon 04:36:29 PM 39.5399 -74.7073 34° Northeast 430 495 37,000  Level FlightAware ADS-B (KWWD)
Mon 04:37:10 PM 39.6091 -74.6490 34° Northeast 429 494 37,000  Level FlightAware ADS-B (KWWD)
Mon 04:37:40 PM 39.6600 -74.6062 34° Northeast 430 495 37,000  Level FlightAware ADS-B (KWWD)
Mon 04:39:06 PM 39.8015 -74.4865 33° Northeast 436 502 37,000  Level FlightAware ADS-B (KPHL)
Mon 04:40:06 PM 39.8999 -74.3924 39° Northeast 439 505 37,000  Level FlightAware ADS-B (KPHL)
Mon 04:40:40 PM 39.9476 -74.3431 38° Northeast 439 505 37,000  Level FlightAware ADS-B (KSNC)
Mon 04:41:21 PM 40.0239 -74.2665 38° Northeast 440 506 37,000  Level FlightAware ADS-B (KSNC)
Mon 04:41:54 PM 40.0776 -74.2128 38° Northeast 436 502 37,000  Level FlightAware ADS-B (KWWD)
Mon 04:42:29 PM 40.1339 -74.1561 38° Northeast 443 510 37,000  Level FlightAware ADS-B (KSNC)
Mon 04:43:02 PM 40.1871 -74.1025 38° Northeast 445 512 37,000  Level FlightAware ADS-B (KSNC)
Mon 04:43:44 PM 40.2553 -74.0336 38° Northeast 446 513 37,000  Level FlightAware ADS-B (KWWD)
Mon 04:44:15 PM 40.3065 -73.9818 38° Northeast 446 513 37,000  Level FlightAware ADS-B (KWWD)
Mon 04:44:52 PM 40.3676 -73.9198 38° Northeast 446 513 37,000  Level FlightAware ADS-B (KSNC)
Mon 04:45:27 PM 40.4247 -73.8616 38° Northeast 445 512 37,000  Level FlightAware ADS-B (KWWD)
Mon 04:46:01 PM 40.4795 -73.8059 38° Northeast 445 512 37,000  Level FlightAware ADS-B (KSNC)
Mon 04:46:32 PM 40.5296 -73.7548 38° Northeast 445 512 37,000  Level FlightAware ADS-B (KSNC)
Mon 04:47:08 PM 40.5887 -73.6944 38° Northeast 443 510 37,000  Level FlightAware ADS-B (KPHL)
Mon 04:47:16 PM 40.5961 -73.6868 39° Northeast 438 504 37,000  Level FlightAware ADS-B (KWWD)
Mon 04:47:26 PM 40.6164 -73.6660 39° Northeast 438 504 37,000  Level FlightAware ADS-B (KWWD)
Mon 04:47:33 PM 40.6283 -73.6538 39° Northeast 438 504 37,000  Level FlightAware ADS-B (KWWD)
Mon 04:47:43 PM 40.6452 -73.6365 39° Northeast 438 504 37,000  Level FlightAware ADS-B (KWWD)
Mon 04:47:58 PM 40.6693 -73.6119 39° Northeast 438 504 37,000  Level FlightAware ADS-B (KWWD)
Mon 04:48:14 PM 40.6943 -73.5862 39° Northeast 438 504 37,000  Level FlightAware ADS-B (KWWD)
Mon 04:48:32 PM 40.7240 -73.5555 39° Northeast 438 504 37,000  Level FlightAware ADS-B (KWWD)
Mon 04:49:04 PM 40.7758 -73.5020 38° Northeast 445 512 37,000  Level FlightAware ADS-B (KSNC)
Mon 04:49:14 PM 40.7922 -73.4851 39° Northeast 439 505 37,000  Level FlightAware ADS-B (KWWD)
Mon 04:49:22 PM 40.8040 -73.4730 39° Northeast 439 505 37,000  Level FlightAware ADS-B (KWWD)
Mon 04:49:55 PM 40.8587 -73.4164 38° Northeast 447 514 37,000  Level FlightAware ADS-B (KSNC)
Mon 04:49:59 PM 40.8646 -73.4103 39° Northeast 440 506 37,000  Level FlightAware ADS-B (KWWD)
Mon 04:50:34 PM 40.9207 -73.3521 38° Northeast 446 513 37,000  Level FlightAware ADS-B (KSNC)
Mon 04:51:04 PM 40.9704 -73.3005 38° Northeast 446 513 37,000  Level FlightAware ADS-B (KSNC)
Mon 04:51:39 PM 41.0269 -73.2417 39° Northeast 440 506 37,000  Level FlightAware ADS-B (KWWD)
Mon 04:51:58 PM 41.0583 -73.2089 39° Northeast 440 506 37,000  Level FlightAware ADS-B (KWWD)
Mon 04:52:10 PM 41.0709 -73.1957 39° Northeast 439 505 37,000  Level FlightAware ADS-B (KWWD)
Mon 04:52:24 PM 41.1004 -73.1650 39° Northeast 437 503 37,000  Level FlightAware ADS-B (KWWD)
Mon 04:52:55 PM 41.1498 -73.1133 39° Northeast 437 503 37,000  Level FlightAware ADS-B (KWWD)
Mon 04:53:27 PM 41.2012 -73.0594 38° Northeast 443 510 37,000  Level FlightAware ADS-B (KSNC)
Mon 04:53:47 PM 41.2295 -73.0296 39° Northeast 437 503 37,000  Level FlightAware ADS-B (KWWD)
Mon 04:54:18 PM 41.2800 -72.9765 38° Northeast 443 510 37,000  Level FlightAware ADS-B (KSNC)
Mon 04:54:22 PM 41.2902 -72.9658 39° Northeast 437 503 37,000  Level FlightAware ADS-B (KWWD)
Mon 04:54:58 PM 41.3467 -72.9063 38° Northeast 441 507 37,000  Level FlightAware ADS-B (KSNC)
Mon 04:55:31 PM 41.3991 -72.8509 39° Northeast 441 507 37,000  Level FlightAware ADS-B (KSNC)
Mon 04:56:01 PM 41.4473 -72.7994 39° Northeast 441 507 37,000  Level FlightAware ADS-B (KSNC)
Mon 04:56:47 PM 41.5196 -72.7195 40° Northeast 440 506 37,000  Level FlightAware ADS-B (KSNC)
Mon 04:57:17 PM 41.5665 -72.6675 40° Northeast 440 506 37,000  Level FlightAware ADS-B (KSNC)
Mon 04:58:07 PM 41.6444 -72.5816 40° Northeast 439 505 37,000  Level FlightAware ADS-B (KSNC)
Mon 04:58:46 PM 41.7027 -72.5170 40° Northeast 440 506 37,000  Level FlightAware ADS-B (KSNC)
Mon 04:59:25 PM 41.7606 -72.4529 40° Northeast 441 507 37,000  Level FlightAware ADS-B (KSNC)
Mon 04:59:55 PM 41.8152 -72.3922 40° Northeast 440 506 37,000  Level FlightAware ADS-B (KSNC)
Mon 05:00:32 PM 41.8688 -72.3323 40° Northeast 439 505 37,000  Level FlightAware ADS-B (KSNC)
Mon 05:01:02 PM 41.9185 -72.2766 40° Northeast 438 504 37,000  Level FlightAware ADS-B (KSNC)
Mon 05:01:50 PM 41.9926 -72.1935 40° Northeast 437 503 37,000  Level FlightAware ADS-B (KSNC)
Mon 05:02:29 PM 42.0543 -72.1243 40° Northeast 438 504 37,000  Level FlightAware ADS-B (KSNC)
Mon 05:03:01 PM 42.1038 -72.0686 40° Northeast 439 505 37,000  Level FlightAware ADS-B (KSNC)
Mon 05:03:31 PM 42.1513 -72.0150 40° Northeast 440 506 37,000  Level FlightAware ADS-B (KSNC)
Mon 05:04:01 PM 42.1969 -71.9635 40° Northeast 440 506 37,000  Level FlightAware ADS-B (KASH)
Mon 05:04:31 PM 42.2435 -71.9106 40° Northeast 441 507 37,000  Level FlightAware ADS-B (KASH)
Mon 05:05:01 PM 42.2907 -71.8570 40° Northeast 442 509 37,000  Level FlightAware ADS-B (KASH)
Mon 05:05:32 PM 42.3401 -71.8007 40° Northeast 442 509 37,000  Level FlightAware ADS-B (KASH)
Mon 05:06:06 PM 42.3928 -71.7408 40° Northeast 442 509 37,000  Level FlightAware ADS-B (KSNC)
Mon 05:06:38 PM 42.4417 -71.6852 40° Northeast 441 507 37,000  Level FlightAware ADS-B (KSNC)
Mon 05:07:14 PM 42.4996 -71.6189 40° Northeast 441 507 37,000  Level FlightAware ADS-B (KSNC)
Mon 05:07:49 PM 42.5527 -71.5577 41° Northeast 441 507 37,000  Level FlightAware ADS-B
Mon 05:08:33 PM 42.6174 -71.4830 41° Northeast 439 505 37,000  Level FlightAware ADS-B
Mon 05:09:03 PM 42.6670 -71.4257 41° Northeast 439 505 37,000  Level FlightAware ADS-B
Mon 05:09:34 PM 42.7151 -71.3701 41° Northeast 433 498 37,000  Level FlightAware ADS-B (KASH)
Mon 05:10:04 PM 42.7594 -71.3187 41° Northeast 439 505 37,000  Level FlightAware ADS-B
Mon 05:10:35 PM 42.8079 -71.2625 41° Northeast 438 504 37,000  Level FlightAware ADS-B
Mon 05:11:15 PM 42.8706 -71.1896 41° Northeast 438 504 37,000  Level FlightAware ADS-B
Mon 05:11:49 PM 42.9245 -71.1269 41° Northeast 433 498 37,000  Level FlightAware ADS-B (KASH)
Mon 05:12:22 PM 42.9726 -71.0706 41° Northeast 440 506 37,000  Level FlightAware ADS-B
Mon 05:13:03 PM 43.0370 -70.9950 41° Northeast 440 506 37,000  Level FlightAware ADS-B
Mon 05:13:36 PM 43.0884 -70.9346 42° Northeast 434 499 37,000  Level FlightAware ADS-B (KASH)
Mon 05:13:53 PM 43.1150 -70.9032 42° Northeast 434 499 37,000  Level FlightAware ADS-B (KASH)
Mon 05:14:24 PM 43.1627 -70.8468 41° Northeast 440 506 37,000  Level FlightAware ADS-B
Mon 05:14:58 PM 43.2131 -70.7874 41° Northeast 440 506 37,000  Level FlightAware ADS-B
Mon 05:15:08 PM 43.2307 -70.7665 42° Northeast 434 499 37,000  Level FlightAware ADS-B (KASH)
Mon 05:15:17 PM 43.2450 -70.7496 42° Northeast 433 498 37,000  Level FlightAware ADS-B (KASH)
Mon 05:15:52 PM 43.2975 -70.6872 41° Northeast 439 505 37,000 -91 Level FlightAware ADS-B
Mon 05:16:23 PM 43.3414 -70.6348 41° Northeast 437 503 36,900 -1,421 Descending FlightAware ADS-B
Mon 05:17:08 PM 43.4140 -70.5482 42° Northeast 435 501 35,200 -1,900 Descending FlightAware ADS-B (KASH)
Mon 05:17:23 PM 43.4377 -70.5202 42° Northeast 447 514 35,000 -214 Descending FlightAware ADS-B (KASH)
Mon 05:18:04 PM 43.5021 -70.4433 41° Northeast 456 525 35,000  Level FlightAware ADS-B
Mon 05:18:52 PM 43.5780 -70.3518 41° Northeast 446 513 35,000 -532 Level FlightAware ADS-B (KASH)
Mon 05:19:23 PM 43.6258 -70.2942 41° Northeast 451 519 34,300 -2,182 Descending FlightAware ADS-B (KASH)
Mon 05:19:36 PM 43.6467 -70.2690 42° Northeast 455 524 33,400 -4,000 Descending FlightAware ADS-B (KASH)
Mon 05:20:08 PM 43.6984 -70.2063 41° Northeast 470 541 31,300 -3,581 Descending FlightAware ADS-B
Mon 05:20:38 PM 43.7468 -70.1477 41° Northeast 466 536 29,700 -2,903 Descending FlightAware ADS-B
Mon 05:21:10 PM 43.7890 -70.0967 41° Northeast 458 527 28,300 -2,571 Descending FlightAware ADS-B
Mon 05:21:41 PM 43.8468 -70.0265 41° Northeast 449 517 27,000 -2,852 Descending FlightAware ADS-B
Mon 05:22:11 PM 43.8928 -69.9704 41° Northeast 441 507 25,400 -3,143 Descending FlightAware ADS-B
Mon 05:22:44 PM 43.9373 -69.9160 42° Northeast 444 511 23,700 -3,520 Descending FlightAware ADS-B
Mon 05:23:26 PM 43.8669 -70.0020 42° Northeast 451 519 21,000 -3,289 Descending FlightAware ADS-B (EGHI / SOU)
Mon 05:24:59 PM 44.0835 -69.7367 42° Northeast 446 513 16,300 -2,555 Descending FlightAware ADS-B (EGHI / SOU)
Mon 05:26:01 PM 44.2400 -69.5430 42° Northeast 391 450 14,400 -2,025 Descending FlightAware ADS-B (KBGR)
Mon 05:27:36 PM 44.3643 -69.3881 42° Northeast 363 418 11,000 -1,489 Descending FlightAware ADS-B (KBGR)
Mon 05:28:22 PM 44.4167 -69.3226 42° Northeast 312 359 10,900 -474 Descending FlightAware ADS-B (KBGR)
Mon 05:28:52 PM 44.4459 -69.2860 42° Northeast 295 339 10,400 -1,333 Descending FlightAware ADS-B (KBGR)
Mon 05:29:07 PM 44.4574 -69.2715 42° Northeast 294 338 9,900 -1,733 Descending FlightAware ADS-B (KBGR)
Mon 05:29:37 PM 44.4942 -69.2255 42° Northeast 292 336 9,100 -1,600 Descending FlightAware ADS-B (KBGR)
Mon 05:30:07 PM 44.5237 -69.1884 42° Northeast 290 334 8,300 -1,696 Descending FlightAware ADS-B (KBGR)
Mon 05:30:23 PM 44.5402 -69.1678 42° Northeast 291 335 7,800 -1,733 Descending FlightAware ADS-B (KBGR)
Mon 05:30:52 PM 44.5677 -69.1330 42° Northeast 289 333 7,000 -1,700 Descending FlightAware ADS-B (KBGR)
Mon 05:31:23 PM 44.6006 -69.0946 32° Northeast 285 328 6,100 -1,600 Descending FlightAware ADS-B (KBGR)
Mon 05:31:52 PM 44.6316 -69.0716 27° Northeast 276 318 5,400 -1,467 Descending FlightAware ADS-B (KBGR)
Mon 05:32:08 PM 44.6516 -69.0579 26° Northeast 277 319 5,000 -1,565 Descending FlightAware ADS-B (KBGR)
Mon 05:32:38 PM 44.6873 -69.0341 25° Northeast 280 322 4,200 -1,200 Descending FlightAware ADS-B (KBGR)
Mon 05:32:53 PM 44.7046 -69.0229 24° Northeast 270 311 4,100 -231 Descending FlightAware ADS-B (KBGR)
Mon 05:33:04 PM 44.7182 -69.0179 North 255 293 4,100  Level FlightAware ADS-B
Mon 05:33:16 PM 44.7290 -69.0189 349° North 246 283 4,100  Level FlightAware ADS-B
Mon 05:33:36 PM 44.7529 -69.0267 346° North 238 274 4,100  Level FlightAware ADS-B
Mon 05:33:52 PM 44.7704 -69.0327 347° North 236 272 4,100  Level FlightAware ADS-B (KBGR)
Mon 05:34:07 PM 44.7866 -69.0380 347° North 233 268 4,100  Level FlightAware ADS-B
Mon 05:34:22 PM 44.8016 -69.0430 347° North 235 270 4,100  Level FlightAware ADS-B (KBGR)
Mon 05:34:38 PM 44.8187 -69.0485 347° North 235 270 4,100 -250 Level FlightAware ADS-B (KBGR)
Mon 05:34:46 PM 44.8089 -69.0453 332° Northwest 225 259 4,000 -800 Descending FlightAware ADS-B
Mon 05:35:08 PM 44.8465 -69.0682 328° Northwest 220 253 3,700 -1,000 Descending FlightAware ADS-B (KBGR)
Mon 05:35:22 PM 44.8596 -69.0779 339° North 226 260 3,400 -1,241 Descending FlightAware ADS-B (KBGR)
Mon 05:35:37 PM 44.8760 -69.0783 15° North 231 266 3,100 -600 Descending FlightAware ADS-B (KBGR)
Mon 05:35:52 PM 44.8875 -69.0693 46° Northeast 224 258 3,100 -194 Level FlightAware ADS-B (KBGR)
Mon 05:36:08 PM 44.8971 -69.0482 65° Northeast 220 253 3,000 -387 Descending FlightAware ADS-B (KBGR)
Mon 05:36:23 PM 44.9027 -69.0289 69° East 214 246 2,900 -632 Descending FlightAware ADS-B (KBGR)
Mon 05:36:46 PM 44.9091 -69.0017 81° East 206 237 2,600 -1,000 Descending FlightAware ADS-B
Mon 05:36:53 PM 44.9091 -68.9899 95° East 203 234 2,400 -1,200 Descending FlightAware ADS-B (KBGR)
Mon 05:36:56 PM 44.9084 -68.9856 106° East 199 229 2,400 -462 Level FlightAware ADS-B
Mon 05:37:06 PM 44.9044 -68.9735 121° Southeast 195 224 2,300 -240 Descending FlightAware ADS-B
Mon 05:37:21 PM 44.8970 -68.9595 131° Southeast 184 212 2,300 -194 Level FlightAware ADS-B (KBGR)
Mon 05:37:37 PM 44.8876 -68.9447 133° Southeast 181 208 2,200 -774 Descending FlightAware ADS-B
Mon 05:37:52 PM 44.8791 -68.9320 133° Southeast 180 207 1,900 -1,000 Descending FlightAware ADS-B (KBGR)
Mon 05:38:07 PM 44.8704 -68.9194 134° Southeast 182 209 1,700 -968 Descending FlightAware ADS-B (KBGR)
Mon 05:38:23 PM 44.8612 -68.9059 133° Southeast 175 201 1,400 -909 Descending FlightAware ADS-B (KBGR)
Mon 05:38:40 PM 44.8517 -68.8921 134° Southeast 156 180 1,200 -706 Descending FlightAware ADS-B
Mon 05:38:57 PM 44.8434 -68.8802 134° Southeast 145 167 1,000 -714 Descending FlightAware ADS-B
Mon 05:39:22 PM 44.8322 -68.8639 134° Southeast 137 158 700 -766 Descending FlightAware ADS-B (KBGR)
Mon 05:39:44 PM 44.8223 -68.8498 135° Southeast 136 157 400 -818 Descending FlightAware ADS-B

Login

Don't have an account? Register now (free) for customized features, flight alerts, and more!